sensor_id;sensor_type;location;lat;lon;timestamp;P1;durP1;ratioP1;P2;durP2;ratioP2
14348;SDS011;7258;50.376;8.742;2023-08-06T00:00:38;8.00;;;6.57;;
14348;SDS011;7258;50.376;8.742;2023-08-06T00:02:41;7.93;;;7.18;;
14348;SDS011;7258;50.376;8.742;2023-08-06T00:04:44;8.82;;;7.38;;
14348;SDS011;7258;50.376;8.742;2023-08-06T00:06:47;7.00;;;6.30;;
14348;SDS011;7258;50.376;8.742;2023-08-06T00:08:50;7.80;;;7.10;;
14348;SDS011;7258;50.376;8.742;2023-08-06T00:10:53;9.60;;;7.15;;
14348;SDS011;7258;50.376;8.742;2023-08-06T00:12:56;7.60;;;6.85;;
14348;SDS011;7258;50.376;8.742;2023-08-06T00:14:58;8.35;;;7.47;;
14348;SDS011;7258;50.376;8.742;2023-08-06T00:17:01;8.15;;;7.35;;
14348;SDS011;7258;50.376;8.742;2023-08-06T00:19:04;7.95;;;7.25;;
14348;SDS011;7258;50.376;8.742;2023-08-06T00:21:08;8.45;;;7.65;;
14348;SDS011;7258;50.376;8.742;2023-08-06T00:23:13;7.70;;;7.00;;
14348;SDS011;7258;50.376;8.742;2023-08-06T00:25:16;7.28;;;6.72;;
14348;SDS011;7258;50.376;8.742;2023-08-06T00:27:18;6.68;;;6.07;;
14348;SDS011;7258;50.376;8.742;2023-08-06T00:29:21;9.82;;;7.00;;
14348;SDS011;7258;50.376;8.742;2023-08-06T00:31:24;9.43;;;6.93;;
14348;SDS011;7258;50.376;8.742;2023-08-06T00:33:27;7.50;;;6.57;;
14348;SDS011;7258;50.376;8.742;2023-08-06T00:35:30;7.65;;;6.55;;
14348;SDS011;7258;50.376;8.742;2023-08-06T00:37:36;7.20;;;6.13;;
14348;SDS011;7258;50.376;8.742;2023-08-06T00:39:38;6.85;;;6.25;;
14348;SDS011;7258;50.376;8.742;2023-08-06T00:41:41;8.88;;;6.35;;
14348;SDS011;7258;50.376;8.742;2023-08-06T00:43:44;8.15;;;6.38;;
14348;SDS011;7258;50.376;8.742;2023-08-06T00:45:47;6.40;;;5.70;;
14348;SDS011;7258;50.376;8.742;2023-08-06T00:47:50;6.30;;;5.80;;
14348;SDS011;7258;50.376;8.742;2023-08-06T00:49:53;7.70;;;6.22;;
14348;SDS011;7258;50.376;8.742;2023-08-06T00:51:56;6.50;;;5.90;;
14348;SDS011;7258;50.376;8.742;2023-08-06T00:54:01;6.72;;;5.68;;
14348;SDS011;7258;50.376;8.742;2023-08-06T00:56:04;8.18;;;6.28;;
14348;SDS011;7258;50.376;8.742;2023-08-06T00:58:08;6.75;;;6.00;;
14348;SDS011;7258;50.376;8.742;2023-08-06T01:00:11;8.50;;;5.82;;
14348;SDS011;7258;50.376;8.742;2023-08-06T01:02:14;6.82;;;6.13;;
14348;SDS011;7258;50.376;8.742;2023-08-06T01:04:17;7.38;;;6.45;;
14348;SDS011;7258;50.376;8.742;2023-08-06T01:06:35;7.55;;;5.97;;
14348;SDS011;7258;50.376;8.742;2023-08-06T01:08:46;6.95;;;5.15;;
14348;SDS011;7258;50.376;8.742;2023-08-06T01:10:58;7.25;;;5.63;;
14348;SDS011;7258;50.376;8.742;2023-08-06T01:13:08;5.80;;;5.30;;
14348;SDS011;7258;50.376;8.742;2023-08-06T01:15:23;6.20;;;5.47;;
14348;SDS011;7258;50.376;8.742;2023-08-06T01:17:32;5.72;;;5.22;;
14348;SDS011;7258;50.376;8.742;2023-08-06T01:19:37;5.63;;;5.10;;
14348;SDS011;7258;50.376;8.742;2023-08-06T01:21:41;6.18;;;5.63;;
14348;SDS011;7258;50.376;8.742;2023-08-06T01:23:45;5.88;;;5.28;;
14348;SDS011;7258;50.376;8.742;2023-08-06T01:25:50;5.53;;;5.03;;
14348;SDS011;7258;50.376;8.742;2023-08-06T01:27:59;6.25;;;5.72;;
14348;SDS011;7258;50.376;8.742;2023-08-06T01:30:10;7.10;;;5.90;;
14348;SDS011;7258;50.376;8.742;2023-08-06T01:32:15;5.32;;;4.82;;
14348;SDS011;7258;50.376;8.742;2023-08-06T01:34:20;8.40;;;5.82;;
14348;SDS011;7258;50.376;8.742;2023-08-06T01:36:25;5.75;;;5.28;;
14348;SDS011;7258;50.376;8.742;2023-08-06T01:38:31;5.65;;;5.22;;
14348;SDS011;7258;50.376;8.742;2023-08-06T01:40:34;6.35;;;5.75;;
14348;SDS011;7258;50.376;8.742;2023-08-06T01:42:37;6.90;;;5.60;;
14348;SDS011;7258;50.376;8.742;2023-08-06T01:44:40;5.78;;;5.05;;
14348;SDS011;7258;50.376;8.742;2023-08-06T01:46:43;5.10;;;4.70;;
14348;SDS011;7258;50.376;8.742;2023-08-06T01:48:46;7.93;;;5.57;;
14348;SDS011;7258;50.376;8.742;2023-08-06T01:50:49;5.55;;;5.03;;
14348;SDS011;7258;50.376;8.742;2023-08-06T01:52:52;6.53;;;5.53;;
14348;SDS011;7258;50.376;8.742;2023-08-06T01:54:56;5.85;;;5.30;;
14348;SDS011;7258;50.376;8.742;2023-08-06T01:56:59;5.90;;;5.43;;
14348;SDS011;7258;50.376;8.742;2023-08-06T01:59:02;5.85;;;5.35;;
14348;SDS011;7258;50.376;8.742;2023-08-06T02:01:05;5.35;;;4.80;;
14348;SDS011;7258;50.376;8.742;2023-08-06T02:03:08;6.10;;;5.10;;
14348;SDS011;7258;50.376;8.742;2023-08-06T02:05:11;7.03;;;5.15;;
14348;SDS011;7258;50.376;8.742;2023-08-06T02:07:14;6.53;;;5.25;;
14348;SDS011;7258;50.376;8.742;2023-08-06T02:09:18;5.65;;;5.15;;
14348;SDS011;7258;50.376;8.742;2023-08-06T02:11:22;9.63;;;5.40;;
14348;SDS011;7258;50.376;8.742;2023-08-06T02:13:25;7.07;;;5.22;;
14348;SDS011;7258;50.376;8.742;2023-08-06T02:15:28;7.93;;;5.45;;
14348;SDS011;7258;50.376;8.742;2023-08-06T02:17:31;6.78;;;6.10;;
14348;SDS011;7258;50.376;8.742;2023-08-06T02:19:34;6.78;;;5.60;;
14348;SDS011;7258;50.376;8.742;2023-08-06T02:21:37;6.78;;;5.90;;
14348;SDS011;7258;50.376;8.742;2023-08-06T02:23:39;6.10;;;5.50;;
14348;SDS011;7258;50.376;8.742;2023-08-06T02:25:42;8.40;;;6.30;;
14348;SDS011;7258;50.376;8.742;2023-08-06T02:27:47;6.57;;;5.95;;
14348;SDS011;7258;50.376;8.742;2023-08-06T02:29:50;6.60;;;5.55;;
14348;SDS011;7258;50.376;8.742;2023-08-06T02:31:52;6.20;;;5.70;;
14348;SDS011;7258;50.376;8.742;2023-08-06T02:33:56;6.85;;;6.00;;
14348;SDS011;7258;50.376;8.742;2023-08-06T02:35:59;6.35;;;5.47;;
14348;SDS011;7258;50.376;8.742;2023-08-06T02:38:03;6.35;;;5.68;;
14348;SDS011;7258;50.376;8.742;2023-08-06T02:40:06;6.03;;;5.50;;
14348;SDS011;7258;50.376;8.742;2023-08-06T02:42:10;9.00;;;5.57;;
14348;SDS011;7258;50.376;8.742;2023-08-06T02:44:14;7.43;;;5.57;;
14348;SDS011;7258;50.376;8.742;2023-08-06T02:46:19;6.15;;;5.65;;
14348;SDS011;7258;50.376;8.742;2023-08-06T02:48:21;5.85;;;5.32;;
14348;SDS011;7258;50.376;8.742;2023-08-06T02:50:24;5.10;;;4.70;;
14348;SDS011;7258;50.376;8.742;2023-08-06T02:52:26;5.78;;;5.20;;
14348;SDS011;7258;50.376;8.742;2023-08-06T02:54:29;6.57;;;5.68;;
14348;SDS011;7258;50.376;8.742;2023-08-06T02:56:32;6.45;;;5.20;;
14348;SDS011;7258;50.376;8.742;2023-08-06T02:58:35;7.07;;;5.57;;
14348;SDS011;7258;50.376;8.742;2023-08-06T03:00:39;6.50;;;5.30;;
14348;SDS011;7258;50.376;8.742;2023-08-06T03:02:41;6.07;;;5.50;;
14348;SDS011;7258;50.376;8.742;2023-08-06T03:04:44;7.68;;;5.07;;
14348;SDS011;7258;50.376;8.742;2023-08-06T03:06:48;6.32;;;5.72;;
14348;SDS011;7258;50.376;8.742;2023-08-06T03:08:51;6.75;;;5.20;;
14348;SDS011;7258;50.376;8.742;2023-08-06T03:10:54;5.68;;;5.28;;
14348;SDS011;7258;50.376;8.742;2023-08-06T03:12:56;5.63;;;5.13;;
14348;SDS011;7258;50.376;8.742;2023-08-06T03:14:59;7.72;;;5.60;;
14348;SDS011;7258;50.376;8.742;2023-08-06T03:17:02;6.43;;;5.20;;
14348;SDS011;7258;50.376;8.742;2023-08-06T03:19:05;5.80;;;5.20;;
14348;SDS011;7258;50.376;8.742;2023-08-06T03:21:08;5.20;;;4.65;;
14348;SDS011;7258;50.376;8.742;2023-08-06T03:23:11;6.15;;;4.88;;
14348;SDS011;7258;50.376;8.742;2023-08-06T03:25:14;7.43;;;5.45;;
14348;SDS011;7258;50.376;8.742;2023-08-06T03:27:17;5.13;;;4.72;;
14348;SDS011;7258;50.376;8.742;2023-08-06T03:29:19;6.05;;;5.45;;
14348;SDS011;7258;50.376;8.742;2023-08-06T03:31:23;5.28;;;4.88;;
14348;SDS011;7258;50.376;8.742;2023-08-06T03:33:27;5.57;;;5.10;;
14348;SDS011;7258;50.376;8.742;2023-08-06T03:35:29;8.32;;;5.68;;
14348;SDS011;7258;50.376;8.742;2023-08-06T03:37:32;6.15;;;5.57;;
14348;SDS011;7258;50.376;8.742;2023-08-06T03:39:35;5.85;;;5.35;;
14348;SDS011;7258;50.376;8.742;2023-08-06T03:41:38;6.75;;;5.07;;
14348;SDS011;7258;50.376;8.742;2023-08-06T03:43:41;11.32;;;5.55;;
14348;SDS011;7258;50.376;8.742;2023-08-06T03:45:44;6.03;;;5.47;;
14348;SDS011;7258;50.376;8.742;2023-08-06T03:47:49;5.88;;;5.30;;
14348;SDS011;7258;50.376;8.742;2023-08-06T03:49:54;7.07;;;5.35;;
14348;SDS011;7258;50.376;8.742;2023-08-06T03:51:57;6.43;;;5.53;;
14348;SDS011;7258;50.376;8.742;2023-08-06T03:53:59;6.68;;;6.03;;
14348;SDS011;7258;50.376;8.742;2023-08-06T03:56:02;7.90;;;6.10;;
14348;SDS011;7258;50.376;8.742;2023-08-06T03:58:05;6.75;;;5.82;;
14348;SDS011;7258;50.376;8.742;2023-08-06T04:00:08;8.45;;;5.85;;
14348;SDS011;7258;50.376;8.742;2023-08-06T04:02:11;6.70;;;6.10;;
14348;SDS011;7258;50.376;8.742;2023-08-06T04:04:14;7.22;;;6.35;;
14348;SDS011;7258;50.376;8.742;2023-08-06T04:06:18;9.43;;;5.40;;
14348;SDS011;7258;50.376;8.742;2023-08-06T04:08:21;6.53;;;5.85;;
14348;SDS011;7258;50.376;8.742;2023-08-06T04:10:24;7.53;;;6.03;;
14348;SDS011;7258;50.376;8.742;2023-08-06T04:12:27;9.35;;;5.72;;
14348;SDS011;7258;50.376;8.742;2023-08-06T04:14:30;5.97;;;5.15;;
14348;SDS011;7258;50.376;8.742;2023-08-06T04:16:33;6.38;;;5.78;;
14348;SDS011;7258;50.376;8.742;2023-08-06T04:18:43;5.65;;;5.15;;
14348;SDS011;7258;50.376;8.742;2023-08-06T04:20:47;6.05;;;5.38;;
14348;SDS011;7258;50.376;8.742;2023-08-06T04:22:57;6.53;;;5.15;;
14348;SDS011;7258;50.376;8.742;2023-08-06T04:25:01;6.35;;;5.47;;
14348;SDS011;7258;50.376;8.742;2023-08-06T04:27:05;6.40;;;5.60;;
14348;SDS011;7258;50.376;8.742;2023-08-06T04:29:10;7.63;;;4.93;;
14348;SDS011;7258;50.376;8.742;2023-08-06T04:31:14;7.18;;;5.43;;
14348;SDS011;7258;50.376;8.742;2023-08-06T04:33:18;5.70;;;5.20;;
14348;SDS011;7258;50.376;8.742;2023-08-06T04:35:28;8.68;;;5.00;;
14348;SDS011;7258;50.376;8.742;2023-08-06T04:37:37;5.90;;;5.40;;
14348;SDS011;7258;50.376;8.742;2023-08-06T04:39:42;5.22;;;4.80;;
14348;SDS011;7258;50.376;8.742;2023-08-06T04:41:57;5.88;;;5.13;;
14348;SDS011;7258;50.376;8.742;2023-08-06T04:44:15;5.70;;;5.18;;
14348;SDS011;7258;50.376;8.742;2023-08-06T04:46:44;7.13;;;4.93;;
14348;SDS011;7258;50.376;8.742;2023-08-06T04:49:10;6.75;;;4.88;;
14348;SDS011;7258;50.376;8.742;2023-08-06T04:51:19;5.68;;;5.15;;
14348;SDS011;7258;50.376;8.742;2023-08-06T04:53:22;7.10;;;5.18;;
14348;SDS011;7258;50.376;8.742;2023-08-06T04:55:41;5.43;;;5.03;;
14348;SDS011;7258;50.376;8.742;2023-08-06T04:57:45;5.28;;;4.80;;
14348;SDS011;7258;50.376;8.742;2023-08-06T05:00:02;5.60;;;4.68;;
14348;SDS011;7258;50.376;8.742;2023-08-06T05:02:12;5.20;;;4.78;;
14348;SDS011;7258;50.376;8.742;2023-08-06T05:04:21;5.35;;;4.82;;
14348;SDS011;7258;50.376;8.742;2023-08-06T05:06:32;5.55;;;5.05;;
14348;SDS011;7258;50.376;8.742;2023-08-06T05:08:35;5.78;;;4.75;;
14348;SDS011;7258;50.376;8.742;2023-08-06T05:10:40;8.15;;;4.57;;
14348;SDS011;7258;50.376;8.742;2023-08-06T05:12:48;5.03;;;4.53;;
14348;SDS011;7258;50.376;8.742;2023-08-06T05:15:04;5.55;;;4.70;;
14348;SDS011;7258;50.376;8.742;2023-08-06T05:17:08;5.07;;;4.57;;
14348;SDS011;7258;50.376;8.742;2023-08-06T05:19:17;4.57;;;4.10;;
14348;SDS011;7258;50.376;8.742;2023-08-06T05:21:22;5.53;;;4.03;;
14348;SDS011;7258;50.376;8.742;2023-08-06T05:23:25;5.75;;;4.03;;
14348;SDS011;7258;50.376;8.742;2023-08-06T05:25:30;6.90;;;3.85;;
14348;SDS011;7258;50.376;8.742;2023-08-06T05:27:33;4.50;;;3.47;;
14348;SDS011;7258;50.376;8.742;2023-08-06T05:29:40;6.18;;;3.33;;
14348;SDS011;7258;50.376;8.742;2023-08-06T05:31:54;6.35;;;3.50;;
14348;SDS011;7258;50.376;8.742;2023-08-06T05:33:59;5.05;;;3.20;;
14348;SDS011;7258;50.376;8.742;2023-08-06T05:36:03;7.40;;;3.05;;
14348;SDS011;7258;50.376;8.742;2023-08-06T05:38:06;5.20;;;3.00;;
14348;SDS011;7258;50.376;8.742;2023-08-06T05:42:58;5.43;;;3.10;;
14348;SDS011;7258;50.376;8.742;2023-08-06T05:45:06;3.25;;;2.95;;
14348;SDS011;7258;50.376;8.742;2023-08-06T05:47:24;5.05;;;2.85;;
14348;SDS011;7258;50.376;8.742;2023-08-06T05:49:27;4.22;;;2.97;;
14348;SDS011;7258;50.376;8.742;2023-08-06T05:51:30;5.13;;;2.72;;
14348;SDS011;7258;50.376;8.742;2023-08-06T05:53:33;5.05;;;3.22;;
14348;SDS011;7258;50.376;8.742;2023-08-06T05:55:38;6.53;;;2.92;;
14348;SDS011;7258;50.376;8.742;2023-08-06T05:57:41;4.40;;;2.97;;
14348;SDS011;7258;50.376;8.742;2023-08-06T05:59:54;5.22;;;3.20;;
14348;SDS011;7258;50.376;8.742;2023-08-06T06:02:02;3.40;;;2.83;;
14348;SDS011;7258;50.376;8.742;2023-08-06T06:04:05;4.10;;;2.40;;
14348;SDS011;7258;50.376;8.742;2023-08-06T06:06:11;2.30;;;2.10;;
14348;SDS011;7258;50.376;8.742;2023-08-06T06:08:20;2.42;;;2.03;;
14348;SDS011;7258;50.376;8.742;2023-08-06T06:10:44;1.73;;;1.63;;
14348;SDS011;7258;50.376;8.742;2023-08-06T06:12:56;2.13;;;1.80;;
14348;SDS011;7258;50.376;8.742;2023-08-06T06:15:00;2.13;;;1.40;;
14348;SDS011;7258;50.376;8.742;2023-08-06T06:17:14;2.85;;;1.95;;
14348;SDS011;7258;50.376;8.742;2023-08-06T06:19:20;4.47;;;1.80;;
14348;SDS011;7258;50.376;8.742;2023-08-06T06:21:37;2.20;;;1.70;;
14348;SDS011;7258;50.376;8.742;2023-08-06T06:23:45;2.78;;;1.60;;
14348;SDS011;7258;50.376;8.742;2023-08-06T06:25:49;3.00;;;1.80;;
14348;SDS011;7258;50.376;8.742;2023-08-06T06:27:53;1.90;;;1.73;;
14348;SDS011;7258;50.376;8.742;2023-08-06T06:29:58;2.55;;;1.70;;
14348;SDS011;7258;50.376;8.742;2023-08-06T06:32:03;2.85;;;1.63;;
14348;SDS011;7258;50.376;8.742;2023-08-06T06:34:13;1.95;;;1.67;;
14348;SDS011;7258;50.376;8.742;2023-08-06T06:36:23;3.33;;;1.55;;
14348;SDS011;7258;50.376;8.742;2023-08-06T06:38:34;3.20;;;1.30;;
14348;SDS011;7258;50.376;8.742;2023-08-06T06:40:39;2.03;;;1.65;;
14348;SDS011;7258;50.376;8.742;2023-08-06T06:42:46;2.38;;;1.60;;
14348;SDS011;7258;50.376;8.742;2023-08-06T06:44:55;1.55;;;1.45;;
14348;SDS011;7258;50.376;8.742;2023-08-06T06:46:58;2.00;;;1.40;;
14348;SDS011;7258;50.376;8.742;2023-08-06T06:49:03;1.50;;;1.40;;
14348;SDS011;7258;50.376;8.742;2023-08-06T06:51:20;1.83;;;1.50;;
14348;SDS011;7258;50.376;8.742;2023-08-06T06:53:32;2.72;;;1.70;;
14348;SDS011;7258;50.376;8.742;2023-08-06T06:58:22;1.70;;;1.50;;
14348;SDS011;7258;50.376;8.742;2023-08-06T07:00:27;1.80;;;1.42;;
14348;SDS011;7258;50.376;8.742;2023-08-06T07:02:29;1.70;;;1.60;;
14348;SDS011;7258;50.376;8.742;2023-08-06T07:04:34;4.20;;;1.90;;
14348;SDS011;7258;50.376;8.742;2023-08-06T07:06:37;3.05;;;1.80;;
14348;SDS011;7258;50.376;8.742;2023-08-06T07:08:40;2.42;;;2.22;;
14348;SDS011;7258;50.376;8.742;2023-08-06T07:10:43;2.13;;;1.90;;
14348;SDS011;7258;50.376;8.742;2023-08-06T07:12:46;2.00;;;1.88;;
14348;SDS011;7258;50.376;8.742;2023-08-06T07:14:48;4.30;;;1.98;;
14348;SDS011;7258;50.376;8.742;2023-08-06T07:16:51;3.78;;;2.20;;
14348;SDS011;7258;50.376;8.742;2023-08-06T07:18:54;2.97;;;2.30;;
14348;SDS011;7258;50.376;8.742;2023-08-06T07:20:59;4.00;;;2.15;;
14348;SDS011;7258;50.376;8.742;2023-08-06T07:23:02;3.08;;;1.83;;
14348;SDS011;7258;50.376;8.742;2023-08-06T07:25:08;4.47;;;2.08;;
14348;SDS011;7258;50.376;8.742;2023-08-06T07:27:13;3.08;;;2.20;;
14348;SDS011;7258;50.376;8.742;2023-08-06T07:29:16;3.38;;;1.92;;
14348;SDS011;7258;50.376;8.742;2023-08-06T07:31:22;4.75;;;2.17;;
14348;SDS011;7258;50.376;8.742;2023-08-06T07:33:25;2.15;;;1.70;;
14348;SDS011;7258;50.376;8.742;2023-08-06T07:35:28;2.00;;;1.80;;
14348;SDS011;7258;50.376;8.742;2023-08-06T07:37:32;4.28;;;1.63;;
14348;SDS011;7258;50.376;8.742;2023-08-06T07:39:35;4.88;;;1.77;;
14348;SDS011;7258;50.376;8.742;2023-08-06T07:41:39;2.00;;;1.80;;
14348;SDS011;7258;50.376;8.742;2023-08-06T07:43:42;1.60;;;1.50;;
14348;SDS011;7258;50.376;8.742;2023-08-06T07:45:44;1.70;;;1.60;;
14348;SDS011;7258;50.376;8.742;2023-08-06T07:47:47;2.00;;;1.20;;
14348;SDS011;7258;50.376;8.742;2023-08-06T07:49:50;3.67;;;1.10;;
14348;SDS011;7258;50.376;8.742;2023-08-06T07:51:53;1.48;;;1.30;;
14348;SDS011;7258;50.376;8.742;2023-08-06T07:53:58;1.27;;;1.17;;
14348;SDS011;7258;50.376;8.742;2023-08-06T07:56:00;1.60;;;1.20;;
14348;SDS011;7258;50.376;8.742;2023-08-06T07:58:04;1.15;;;1.10;;
14348;SDS011;7258;50.376;8.742;2023-08-06T08:00:08;1.40;;;1.30;;
14348;SDS011;7258;50.376;8.742;2023-08-06T08:02:11;1.80;;;1.40;;
14348;SDS011;7258;50.376;8.742;2023-08-06T08:04:14;1.33;;;1.23;;
14348;SDS011;7258;50.376;8.742;2023-08-06T08:06:17;1.85;;;1.15;;
14348;SDS011;7258;50.376;8.742;2023-08-06T08:08:20;1.30;;;1.20;;
14348;SDS011;7258;50.376;8.742;2023-08-06T08:10:24;1.00;;;1.00;;
14348;SDS011;7258;50.376;8.742;2023-08-06T08:12:27;1.38;;;1.05;;
14348;SDS011;7258;50.376;8.742;2023-08-06T08:14:30;3.25;;;1.00;;
14348;SDS011;7258;50.376;8.742;2023-08-06T08:16:36;2.20;;;0.80;;
14348;SDS011;7258;50.376;8.742;2023-08-06T08:18:39;1.02;;;0.90;;
14348;SDS011;7258;50.376;8.742;2023-08-06T08:20:42;1.10;;;1.10;;
14348;SDS011;7258;50.376;8.742;2023-08-06T08:22:46;1.10;;;0.70;;
14348;SDS011;7258;50.376;8.742;2023-08-06T08:24:47;1.35;;;0.80;;
14348;SDS011;7258;50.376;8.742;2023-08-06T08:26:52;0.75;;;0.75;;
14348;SDS011;7258;50.376;8.742;2023-08-06T08:28:55;0.88;;;0.77;;
14348;SDS011;7258;50.376;8.742;2023-08-06T08:30:59;1.83;;;0.80;;
14348;SDS011;7258;50.376;8.742;2023-08-06T08:33:00;1.20;;;0.73;;
14348;SDS011;7258;50.376;8.742;2023-08-06T08:35:04;1.50;;;0.80;;
14348;SDS011;7258;50.376;8.742;2023-08-06T08:37:07;1.55;;;0.60;;
14348;SDS011;7258;50.376;8.742;2023-08-06T08:39:09;0.80;;;0.43;;
14348;SDS011;7258;50.376;8.742;2023-08-06T08:41:12;0.57;;;0.57;;
14348;SDS011;7258;50.376;8.742;2023-08-06T08:43:16;0.80;;;0.80;;
14348;SDS011;7258;50.376;8.742;2023-08-06T08:45:24;0.50;;;0.50;;
14348;SDS011;7258;50.376;8.742;2023-08-06T08:47:30;0.52;;;0.52;;
14348;SDS011;7258;50.376;8.742;2023-08-06T08:49:34;0.85;;;0.60;;
14348;SDS011;7258;50.376;8.742;2023-08-06T08:51:38;3.60;;;0.90;;
14348;SDS011;7258;50.376;8.742;2023-08-06T08:53:40;0.60;;;0.50;;
14348;SDS011;7258;50.376;8.742;2023-08-06T08:55:47;1.80;;;0.70;;
14348;SDS011;7258;50.376;8.742;2023-08-06T08:57:50;6.22;;;0.85;;
14348;SDS011;7258;50.376;8.742;2023-08-06T08:59:54;0.98;;;0.57;;
14348;SDS011;7258;50.376;8.742;2023-08-06T09:01:57;0.50;;;0.50;;
14348;SDS011;7258;50.376;8.742;2023-08-06T09:04:08;0.80;;;0.55;;
14348;SDS011;7258;50.376;8.742;2023-08-06T09:06:12;0.50;;;0.50;;
14348;SDS011;7258;50.376;8.742;2023-08-06T09:08:18;1.58;;;0.65;;
14348;SDS011;7258;50.376;8.742;2023-08-06T09:10:24;0.60;;;0.60;;
14348;SDS011;7258;50.376;8.742;2023-08-06T09:12:27;1.67;;;0.50;;
14348;SDS011;7258;50.376;8.742;2023-08-06T09:14:30;0.73;;;0.50;;
14348;SDS011;7258;50.376;8.742;2023-08-06T09:16:35;0.85;;;0.70;;
14348;SDS011;7258;50.376;8.742;2023-08-06T09:18:41;0.60;;;0.60;;
14348;SDS011;7258;50.376;8.742;2023-08-06T09:20:44;1.90;;;0.70;;
14348;SDS011;7258;50.376;8.742;2023-08-06T09:22:47;1.15;;;0.73;;
14348;SDS011;7258;50.376;8.742;2023-08-06T09:24:50;0.70;;;0.70;;
14348;SDS011;7258;50.376;8.742;2023-08-06T09:26:53;0.82;;;0.60;;
14348;SDS011;7258;50.376;8.742;2023-08-06T09:28:58;0.88;;;0.63;;
14348;SDS011;7258;50.376;8.742;2023-08-06T09:31:04;0.75;;;0.60;;
14348;SDS011;7258;50.376;8.742;2023-08-06T09:33:09;0.68;;;0.60;;
14348;SDS011;7258;50.376;8.742;2023-08-06T09:35:15;0.60;;;0.60;;
14348;SDS011;7258;50.376;8.742;2023-08-06T09:37:19;0.50;;;0.50;;
14348;SDS011;7258;50.376;8.742;2023-08-06T09:39:26;0.70;;;0.70;;
14348;SDS011;7258;50.376;8.742;2023-08-06T09:41:30;0.40;;;0.40;;
14348;SDS011;7258;50.376;8.742;2023-08-06T09:43:39;0.63;;;0.60;;
14348;SDS011;7258;50.376;8.742;2023-08-06T09:45:42;0.60;;;0.40;;
14348;SDS011;7258;50.376;8.742;2023-08-06T09:47:46;0.63;;;0.60;;
14348;SDS011;7258;50.376;8.742;2023-08-06T09:49:49;0.52;;;0.52;;
14348;SDS011;7258;50.376;8.742;2023-08-06T09:51:53;0.80;;;0.80;;
14348;SDS011;7258;50.376;8.742;2023-08-06T09:53:59;0.57;;;0.57;;
14348;SDS011;7258;50.376;8.742;2023-08-06T09:56:21;2.58;;;0.57;;
14348;SDS011;7258;50.376;8.742;2023-08-06T09:58:29;1.30;;;0.70;;
14348;SDS011;7258;50.376;8.742;2023-08-06T10:00:33;0.40;;;0.40;;
14348;SDS011;7258;50.376;8.742;2023-08-06T10:02:47;1.05;;;0.60;;
14348;SDS011;7258;50.376;8.742;2023-08-06T10:04:57;0.43;;;0.43;;
14348;SDS011;7258;50.376;8.742;2023-08-06T10:07:01;0.70;;;0.40;;
14348;SDS011;7258;50.376;8.742;2023-08-06T10:09:04;0.30;;;0.30;;
14348;SDS011;7258;50.376;8.742;2023-08-06T10:11:07;0.25;;;0.25;;
14348;SDS011;7258;50.376;8.742;2023-08-06T10:13:11;0.30;;;0.30;;
14348;SDS011;7258;50.376;8.742;2023-08-06T10:15:16;0.28;;;0.28;;
14348;SDS011;7258;50.376;8.742;2023-08-06T10:17:23;1.25;;;0.50;;
14348;SDS011;7258;50.376;8.742;2023-08-06T10:19:45;0.22;;;0.22;;
14348;SDS011;7258;50.376;8.742;2023-08-06T10:24:13;0.30;;;0.30;;
14348;SDS011;7258;50.376;8.742;2023-08-06T10:26:16;0.60;;;0.50;;
14348;SDS011;7258;50.376;8.742;2023-08-06T10:28:19;0.40;;;0.30;;
14348;SDS011;7258;50.376;8.742;2023-08-06T10:30:23;1.13;;;0.60;;
14348;SDS011;7258;50.376;8.742;2023-08-06T10:34:53;0.57;;;0.50;;
14348;SDS011;7258;50.376;8.742;2023-08-06T10:36:56;1.05;;;0.50;;
14348;SDS011;7258;50.376;8.742;2023-08-06T10:39:00;0.70;;;0.52;;
14348;SDS011;7258;50.376;8.742;2023-08-06T10:41:07;1.05;;;0.50;;
14348;SDS011;7258;50.376;8.742;2023-08-06T10:43:24;0.88;;;0.57;;
14348;SDS011;7258;50.376;8.742;2023-08-06T10:45:27;0.57;;;0.50;;
14348;SDS011;7258;50.376;8.742;2023-08-06T10:47:32;0.77;;;0.60;;
14348;SDS011;7258;50.376;8.742;2023-08-06T10:49:43;0.20;;;0.20;;
14348;SDS011;7258;50.376;8.742;2023-08-06T10:51:46;0.70;;;0.70;;
14348;SDS011;7258;50.376;8.742;2023-08-06T10:53:49;0.55;;;0.50;;
14348;SDS011;7258;50.376;8.742;2023-08-06T10:55:54;0.95;;;0.55;;
14348;SDS011;7258;50.376;8.742;2023-08-06T10:57:57;0.45;;;0.38;;
14348;SDS011;7258;50.376;8.742;2023-08-06T11:00:00;0.40;;;0.38;;
14348;SDS011;7258;50.376;8.742;2023-08-06T11:02:16;0.68;;;0.40;;
14348;SDS011;7258;50.376;8.742;2023-08-06T11:04:20;0.75;;;0.45;;
14348;SDS011;7258;50.376;8.742;2023-08-06T11:06:24;0.40;;;0.40;;
14348;SDS011;7258;50.376;8.742;2023-08-06T11:08:29;0.32;;;0.32;;
14348;SDS011;7258;50.376;8.742;2023-08-06T11:10:36;1.45;;;0.50;;
14348;SDS011;7258;50.376;8.742;2023-08-06T11:12:49;0.40;;;0.40;;
14348;SDS011;7258;50.376;8.742;2023-08-06T11:14:52;0.40;;;0.40;;
14348;SDS011;7258;50.376;8.742;2023-08-06T11:16:54;0.65;;;0.50;;
14348;SDS011;7258;50.376;8.742;2023-08-06T11:18:57;0.40;;;0.40;;
14348;SDS011;7258;50.376;8.742;2023-08-06T11:21:01;2.88;;;0.60;;
14348;SDS011;7258;50.376;8.742;2023-08-06T11:23:04;0.82;;;0.30;;
14348;SDS011;7258;50.376;8.742;2023-08-06T11:25:07;1.00;;;0.50;;
14348;SDS011;7258;50.376;8.742;2023-08-06T11:27:11;0.50;;;0.50;;
14348;SDS011;7258;50.376;8.742;2023-08-06T11:29:16;0.57;;;0.57;;
14348;SDS011;7258;50.376;8.742;2023-08-06T11:31:19;0.30;;;0.30;;
14348;SDS011;7258;50.376;8.742;2023-08-06T11:33:22;0.75;;;0.40;;
14348;SDS011;7258;50.376;8.742;2023-08-06T11:35:26;2.92;;;0.50;;
14348;SDS011;7258;50.376;8.742;2023-08-06T11:37:29;0.70;;;0.70;;
14348;SDS011;7258;50.376;8.742;2023-08-06T11:39:32;0.40;;;0.40;;
14348;SDS011;7258;50.376;8.742;2023-08-06T11:41:35;1.35;;;0.80;;
14348;SDS011;7258;50.376;8.742;2023-08-06T11:43:40;0.93;;;0.70;;
14348;SDS011;7258;50.376;8.742;2023-08-06T11:45:48;0.95;;;0.70;;
14348;SDS011;7258;50.376;8.742;2023-08-06T11:47:52;0.70;;;0.70;;
14348;SDS011;7258;50.376;8.742;2023-08-06T11:49:55;0.60;;;0.60;;
14348;SDS011;7258;50.376;8.742;2023-08-06T11:51:58;1.13;;;1.10;;
14348;SDS011;7258;50.376;8.742;2023-08-06T11:54:00;1.42;;;1.02;;
14348;SDS011;7258;50.376;8.742;2023-08-06T11:56:03;1.00;;;0.75;;
14348;SDS011;7258;50.376;8.742;2023-08-06T11:58:06;0.73;;;0.73;;
14348;SDS011;7258;50.376;8.742;2023-08-06T12:00:12;0.70;;;0.70;;
14348;SDS011;7258;50.376;8.742;2023-08-06T12:02:17;0.40;;;0.40;;
14348;SDS011;7258;50.376;8.742;2023-08-06T12:04:24;2.28;;;0.30;;
14348;SDS011;7258;50.376;8.742;2023-08-06T12:06:27;1.02;;;0.30;;
14348;SDS011;7258;50.376;8.742;2023-08-06T12:08:30;1.13;;;0.50;;
14348;SDS011;7258;50.376;8.742;2023-08-06T12:10:33;1.58;;;0.77;;
14348;SDS011;7258;50.376;8.742;2023-08-06T12:12:36;19.25;;;1.40;;
14348;SDS011;7258;50.376;8.742;2023-08-06T12:14:39;3.80;;;1.08;;
14348;SDS011;7258;50.376;8.742;2023-08-06T12:16:42;0.75;;;0.60;;
14348;SDS011;7258;50.376;8.742;2023-08-06T12:18:46;0.60;;;0.57;;
14348;SDS011;7258;50.376;8.742;2023-08-06T12:20:50;0.60;;;0.50;;
14348;SDS011;7258;50.376;8.742;2023-08-06T12:22:53;2.30;;;0.73;;
14348;SDS011;7258;50.376;8.742;2023-08-06T12:24:59;1.38;;;0.60;;
14348;SDS011;7258;50.376;8.742;2023-08-06T12:27:01;2.10;;;0.70;;
14348;SDS011;7258;50.376;8.742;2023-08-06T12:29:04;0.57;;;0.50;;
14348;SDS011;7258;50.376;8.742;2023-08-06T12:31:07;2.17;;;0.70;;
14348;SDS011;7258;50.376;8.742;2023-08-06T12:33:10;0.73;;;0.60;;
14348;SDS011;7258;50.376;8.742;2023-08-06T12:35:14;2.03;;;0.60;;
14348;SDS011;7258;50.376;8.742;2023-08-06T12:37:17;0.63;;;0.63;;
14348;SDS011;7258;50.376;8.742;2023-08-06T12:39:20;0.88;;;0.70;;
14348;SDS011;7258;50.376;8.742;2023-08-06T12:41:22;3.60;;;0.70;;
14348;SDS011;7258;50.376;8.742;2023-08-06T12:43:25;1.02;;;0.77;;
14348;SDS011;7258;50.376;8.742;2023-08-06T12:45:28;1.50;;;0.90;;
14348;SDS011;7258;50.376;8.742;2023-08-06T12:47:31;1.02;;;0.70;;
14348;SDS011;7258;50.376;8.742;2023-08-06T12:49:34;1.98;;;0.80;;
14348;SDS011;7258;50.376;8.742;2023-08-06T12:51:38;1.58;;;1.10;;
14348;SDS011;7258;50.376;8.742;2023-08-06T12:53:41;1.02;;;0.80;;